sensor_id;sensor_type;location;lat;lon;timestamp;temperature;humidity
22450;DHT22;11392;57.390;-2.468;2023-04-01T00:00:00;4.60;99.90
22450;DHT22;11392;57.390;-2.468;2023-04-01T00:02:27;4.60;99.90
22450;DHT22;11392;57.390;-2.468;2023-04-01T00:04:54;4.60;99.90
22450;DHT22;11392;57.390;-2.468;2023-04-01T00:07:21;4.60;99.90
22450;DHT22;11392;57.390;-2.468;2023-04-01T00:09:49;4.60;99.90
22450;DHT22;11392;57.390;-2.468;2023-04-01T00:12:16;4.60;99.90
22450;DHT22;11392;57.390;-2.468;2023-04-01T00:14:43;4.60;99.90
22450;DHT22;11392;57.390;-2.468;2023-04-01T00:17:10;4.60;99.90
22450;DHT22;11392;57.390;-2.468;2023-04-01T00:19:37;4.60;99.90
22450;DHT22;11392;57.390;-2.468;2023-04-01T00:22:04;4.60;99.90
22450;DHT22;11392;57.390;-2.468;2023-04-01T00:24:31;4.60;99.90
22450;DHT22;11392;57.390;-2.468;2023-04-01T00:26:59;4.60;99.90
22450;DHT22;11392;57.390;-2.468;2023-04-01T00:29:25;4.60;99.90
22450;DHT22;11392;57.390;-2.468;2023-04-01T00:31:58;4.70;99.90
22450;DHT22;11392;57.390;-2.468;2023-04-01T00:34:26;4.70;99.90
22450;DHT22;11392;57.390;-2.468;2023-04-01T00:36:53;4.60;99.90
22450;DHT22;11392;57.390;-2.468;2023-04-01T00:39:21;4.60;99.90
22450;DHT22;11392;57.390;-2.468;2023-04-01T00:41:48;4.60;99.90
22450;DHT22;11392;57.390;-2.468;2023-04-01T00:44:21;4.60;99.90
22450;DHT22;11392;57.390;-2.468;2023-04-01T00:46:49;4.60;99.90
22450;DHT22;11392;57.390;-2.468;2023-04-01T00:49:20;4.70;99.90
22450;DHT22;11392;57.390;-2.468;2023-04-01T00:51:51;4.70;99.90
22450;DHT22;11392;57.390;-2.468;2023-04-01T00:54:20;4.70;99.90
22450;DHT22;11392;57.390;-2.468;2023-04-01T00:59:32;4.70;99.90
22450;DHT22;11392;57.390;-2.468;2023-04-01T01:02:07;4.70;99.90
22450;DHT22;11392;57.390;-2.468;2023-04-01T01:04:36;4.70;99.90
22450;DHT22;11392;57.390;-2.468;2023-04-01T01:12:13;4.70;99.90
22450;DHT22;11392;57.390;-2.468;2023-04-01T01:15:02;4.70;99.90
22450;DHT22;11392;57.390;-2.468;2023-04-01T01:37:01;4.60;99.90
22450;DHT22;11392;57.390;-2.468;2023-04-01T01:39:31;4.60;99.90
22450;DHT22;11392;57.390;-2.468;2023-04-01T01:42:06;4.60;99.90
22450;DHT22;11392;57.390;-2.468;2023-04-01T01:44:34;4.70;99.90
22450;DHT22;11392;57.390;-2.468;2023-04-01T01:47:02;4.70;99.90
22450;DHT22;11392;57.390;-2.468;2023-04-01T01:49:32;4.70;99.90
22450;DHT22;11392;57.390;-2.468;2023-04-01T01:52:00;4.70;99.90
22450;DHT22;11392;57.390;-2.468;2023-04-01T01:54:27;4.70;99.90
22450;DHT22;11392;57.390;-2.468;2023-04-01T01:57:06;4.80;99.90
22450;DHT22;11392;57.390;-2.468;2023-04-01T01:59:36;4.70;99.90
22450;DHT22;11392;57.390;-2.468;2023-04-01T02:02:06;4.70;99.90
22450;DHT22;11392;57.390;-2.468;2023-04-01T02:04:37;4.70;99.90
22450;DHT22;11392;57.390;-2.468;2023-04-01T02:07:22;4.70;99.90
22450;DHT22;11392;57.390;-2.468;2023-04-01T02:09:50;4.70;99.90
22450;DHT22;11392;57.390;-2.468;2023-04-01T02:12:19;4.70;99.90
22450;DHT22;11392;57.390;-2.468;2023-04-01T02:14:57;4.80;99.90
22450;DHT22;11392;57.390;-2.468;2023-04-01T02:17:30;4.70;99.90
22450;DHT22;11392;57.390;-2.468;2023-04-01T02:22:43;4.80;99.90
22450;DHT22;11392;57.390;-2.468;2023-04-01T02:25:23;4.80;99.90
22450;DHT22;11392;57.390;-2.468;2023-04-01T02:27:51;4.80;99.90
22450;DHT22;11392;57.390;-2.468;2023-04-01T02:30:19;4.70;99.90
22450;DHT22;11392;57.390;-2.468;2023-04-01T02:32:48;4.70;99.90
22450;DHT22;11392;57.390;-2.468;2023-04-01T02:35:16;4.70;99.90
22450;DHT22;11392;57.390;-2.468;2023-04-01T02:37:45;4.70;99.90
22450;DHT22;11392;57.390;-2.468;2023-04-01T02:40:16;4.70;99.90
22450;DHT22;11392;57.390;-2.468;2023-04-01T02:42:44;4.70;99.90
22450;DHT22;11392;57.390;-2.468;2023-04-01T02:45:13;4.70;99.90
22450;DHT22;11392;57.390;-2.468;2023-04-01T02:47:40;4.60;99.90
22450;DHT22;11392;57.390;-2.468;2023-04-01T02:50:08;4.60;99.90
22450;DHT22;11392;57.390;-2.468;2023-04-01T02:52:35;4.60;99.90
22450;DHT22;11392;57.390;-2.468;2023-04-01T02:55:03;4.60;99.90
22450;DHT22;11392;57.390;-2.468;2023-04-01T02:57:30;4.60;99.90
22450;DHT22;11392;57.390;-2.468;2023-04-01T02:59:57;4.60;99.90
22450;DHT22;11392;57.390;-2.468;2023-04-01T03:02:24;4.60;99.90
22450;DHT22;11392;57.390;-2.468;2023-04-01T03:04:52;4.60;99.90
22450;DHT22;11392;57.390;-2.468;2023-04-01T03:07:19;4.60;99.90
22450;DHT22;11392;57.390;-2.468;2023-04-01T03:09:46;4.60;99.90
22450;DHT22;11392;57.390;-2.468;2023-04-01T03:12:13;4.60;99.90
22450;DHT22;11392;57.390;-2.468;2023-04-01T03:14:40;4.60;99.90
22450;DHT22;11392;57.390;-2.468;2023-04-01T03:17:06;4.70;99.90
22450;DHT22;11392;57.390;-2.468;2023-04-01T03:19:33;4.70;99.90
22450;DHT22;11392;57.390;-2.468;2023-04-01T03:22:01;4.70;99.90
22450;DHT22;11392;57.390;-2.468;2023-04-01T03:24:28;4.70;99.90
22450;DHT22;11392;57.390;-2.468;2023-04-01T03:26:55;4.70;99.90
22450;DHT22;11392;57.390;-2.468;2023-04-01T03:29:22;4.70;99.90
22450;DHT22;11392;57.390;-2.468;2023-04-01T03:31:49;4.70;99.90
22450;DHT22;11392;57.390;-2.468;2023-04-01T03:34:16;4.70;99.90
22450;DHT22;11392;57.390;-2.468;2023-04-01T03:36:43;4.70;99.90
22450;DHT22;11392;57.390;-2.468;2023-04-01T03:39:10;4.60;99.90
22450;DHT22;11392;57.390;-2.468;2023-04-01T03:41:37;4.60;99.90
22450;DHT22;11392;57.390;-2.468;2023-04-01T03:44:05;4.50;99.90
22450;DHT22;11392;57.390;-2.468;2023-04-01T03:46:32;4.50;99.90
22450;DHT22;11392;57.390;-2.468;2023-04-01T03:48:59;4.50;99.90
22450;DHT22;11392;57.390;-2.468;2023-04-01T03:51:26;4.50;99.90
22450;DHT22;11392;57.390;-2.468;2023-04-01T03:53:53;4.50;99.90
22450;DHT22;11392;57.390;-2.468;2023-04-01T03:56:20;4.50;99.90
22450;DHT22;11392;57.390;-2.468;2023-04-01T03:58:47;4.50;99.90
22450;DHT22;11392;57.390;-2.468;2023-04-01T04:01:16;4.50;99.90
22450;DHT22;11392;57.390;-2.468;2023-04-01T04:03:43;4.60;99.90
22450;DHT22;11392;57.390;-2.468;2023-04-01T04:06:12;4.60;99.90
22450;DHT22;11392;57.390;-2.468;2023-04-01T04:08:40;4.60;99.90
22450;DHT22;11392;57.390;-2.468;2023-04-01T04:11:07;4.60;99.90
22450;DHT22;11392;57.390;-2.468;2023-04-01T04:13:34;4.60;99.90
22450;DHT22;11392;57.390;-2.468;2023-04-01T04:16:03;4.60;99.90
22450;DHT22;11392;57.390;-2.468;2023-04-01T04:18:30;4.60;99.90
22450;DHT22;11392;57.390;-2.468;2023-04-01T04:20:57;4.60;99.90
22450;DHT22;11392;57.390;-2.468;2023-04-01T04:23:24;4.60;99.90
22450;DHT22;11392;57.390;-2.468;2023-04-01T04:26:09;4.60;99.90
22450;DHT22;11392;57.390;-2.468;2023-04-01T04:28:36;4.50;99.90
22450;DHT22;11392;57.390;-2.468;2023-04-01T04:31:03;4.60;99.90
22450;DHT22;11392;57.390;-2.468;2023-04-01T04:33:32;4.60;99.90
22450;DHT22;11392;57.390;-2.468;2023-04-01T04:36:00;4.60;99.90
22450;DHT22;11392;57.390;-2.468;2023-04-01T04:38:27;4.60;99.90
22450;DHT22;11392;57.390;-2.468;2023-04-01T04:40:54;4.60;99.90
22450;DHT22;11392;57.390;-2.468;2023-04-01T04:43:22;4.60;99.90
22450;DHT22;11392;57.390;-2.468;2023-04-01T04:45:49;4.50;99.90
22450;DHT22;11392;57.390;-2.468;2023-04-01T04:48:17;4.60;99.90
22450;DHT22;11392;57.390;-2.468;2023-04-01T04:50:48;4.60;99.90
22450;DHT22;11392;57.390;-2.468;2023-04-01T04:53:17;4.60;99.90
22450;DHT22;11392;57.390;-2.468;2023-04-01T04:55:49;4.50;99.90
22450;DHT22;11392;57.390;-2.468;2023-04-01T04:58:17;4.50;99.90
22450;DHT22;11392;57.390;-2.468;2023-04-01T05:00:45;4.40;99.90
22450;DHT22;11392;57.390;-2.468;2023-04-01T05:03:13;4.40;99.90
22450;DHT22;11392;57.390;-2.468;2023-04-01T05:05:51;4.40;99.90
22450;DHT22;11392;57.390;-2.468;2023-04-01T05:08:19;4.30;99.90
22450;DHT22;11392;57.390;-2.468;2023-04-01T05:10:46;4.30;99.90
22450;DHT22;11392;57.390;-2.468;2023-04-01T05:13:13;4.30;99.90
22450;DHT22;11392;57.390;-2.468;2023-04-01T05:15:41;4.30;99.90
22450;DHT22;11392;57.390;-2.468;2023-04-01T05:18:07;4.30;99.90
22450;DHT22;11392;57.390;-2.468;2023-04-01T05:20:34;4.30;99.90
22450;DHT22;11392;57.390;-2.468;2023-04-01T05:23:02;4.30;99.90
22450;DHT22;11392;57.390;-2.468;2023-04-01T05:25:29;4.30;99.90
22450;DHT22;11392;57.390;-2.468;2023-04-01T05:27:56;4.30;99.90
22450;DHT22;11392;57.390;-2.468;2023-04-01T05:30:23;4.40;99.90
22450;DHT22;11392;57.390;-2.468;2023-04-01T05:32:50;4.30;99.90
22450;DHT22;11392;57.390;-2.468;2023-04-01T05:35:18;4.40;99.90
22450;DHT22;11392;57.390;-2.468;2023-04-01T05:37:44;4.40;99.90
22450;DHT22;11392;57.390;-2.468;2023-04-01T05:40:12;4.40;99.90
22450;DHT22;11392;57.390;-2.468;2023-04-01T05:42:39;4.40;99.90
22450;DHT22;11392;57.390;-2.468;2023-04-01T05:45:06;4.50;99.90
22450;DHT22;11392;57.390;-2.468;2023-04-01T05:47:34;4.50;99.90
22450;DHT22;11392;57.390;-2.468;2023-04-01T05:50:01;4.50;99.90
22450;DHT22;11392;57.390;-2.468;2023-04-01T05:52:28;4.40;99.90
22450;DHT22;11392;57.390;-2.468;2023-04-01T05:54:54;4.50;99.90
22450;DHT22;11392;57.390;-2.468;2023-04-01T05:57:21;4.50;99.90
22450;DHT22;11392;57.390;-2.468;2023-04-01T05:59:48;4.50;99.90
22450;DHT22;11392;57.390;-2.468;2023-04-01T06:02:17;4.50;99.90
22450;DHT22;11392;57.390;-2.468;2023-04-01T06:04:44;4.50;99.90
22450;DHT22;11392;57.390;-2.468;2023-04-01T06:07:17;4.60;99.90
22450;DHT22;11392;57.390;-2.468;2023-04-01T06:09:45;4.50;99.90
22450;DHT22;11392;57.390;-2.468;2023-04-01T06:12:27;4.60;99.90
22450;DHT22;11392;57.390;-2.468;2023-04-01T06:23:25;4.60;99.90
22450;DHT22;11392;57.390;-2.468;2023-04-01T06:37:33;4.70;99.90
22450;DHT22;11392;57.390;-2.468;2023-04-01T06:43:09;4.70;99.90
22450;DHT22;11392;57.390;-2.468;2023-04-01T06:46:20;4.70;99.90
22450;DHT22;11392;57.390;-2.468;2023-04-01T06:53:56;4.80;99.90
22450;DHT22;11392;57.390;-2.468;2023-04-01T06:56:28;4.80;99.90
22450;DHT22;11392;57.390;-2.468;2023-04-01T06:59:05;4.80;99.90
22450;DHT22;11392;57.390;-2.468;2023-04-01T07:09:49;4.90;99.90
22450;DHT22;11392;57.390;-2.468;2023-04-01T07:12:29;4.90;99.90
22450;DHT22;11392;57.390;-2.468;2023-04-01T07:17:45;5.00;99.90
22450;DHT22;11392;57.390;-2.468;2023-04-01T07:22:49;5.00;99.90
22450;DHT22;11392;57.390;-2.468;2023-04-01T07:25:23;5.00;99.90
22450;DHT22;11392;57.390;-2.468;2023-04-01T07:28:10;5.10;99.90
22450;DHT22;11392;57.390;-2.468;2023-04-01T07:33:42;5.20;99.90
22450;DHT22;11392;57.390;-2.468;2023-04-01T07:44:20;5.30;99.90
22450;DHT22;11392;57.390;-2.468;2023-04-01T07:50:12;5.30;99.90
22450;DHT22;11392;57.390;-2.468;2023-04-01T07:52:59;5.40;99.90
22450;DHT22;11392;57.390;-2.468;2023-04-01T07:55:54;5.50;99.90
22450;DHT22;11392;57.390;-2.468;2023-04-01T07:59:11;5.60;99.90
22450;DHT22;11392;57.390;-2.468;2023-04-01T08:04:37;5.90;99.90
22450;DHT22;11392;57.390;-2.468;2023-04-01T08:15:26;6.70;99.90
22450;DHT22;11392;57.390;-2.468;2023-04-01T08:18:23;6.60;99.90
22450;DHT22;11392;57.390;-2.468;2023-04-01T08:21:01;6.60;99.90
22450;DHT22;11392;57.390;-2.468;2023-04-01T08:29:14;6.40;99.90
22450;DHT22;11392;57.390;-2.468;2023-04-01T08:31:53;6.40;99.90
22450;DHT22;11392;57.390;-2.468;2023-04-01T08:34:25;6.30;99.90
22450;DHT22;11392;57.390;-2.468;2023-04-01T08:37:11;6.20;99.90
22450;DHT22;11392;57.390;-2.468;2023-04-01T08:43:09;6.10;99.90
22450;DHT22;11392;57.390;-2.468;2023-04-01T08:59:57;6.10;99.90
22450;DHT22;11392;57.390;-2.468;2023-04-01T09:11:08;6.10;99.90
22450;DHT22;11392;57.390;-2.468;2023-04-01T09:13:57;6.10;99.90
22450;DHT22;11392;57.390;-2.468;2023-04-01T09:19:23;6.20;99.90
22450;DHT22;11392;57.390;-2.468;2023-04-01T09:50:30;5.90;99.90
22450;DHT22;11392;57.390;-2.468;2023-04-01T10:31:32;6.20;99.90
22450;DHT22;11392;57.390;-2.468;2023-04-01T10:36:54;6.30;99.90
22450;DHT22;11392;57.390;-2.468;2023-04-01T10:44:45;6.40;99.90
22450;DHT22;11392;57.390;-2.468;2023-04-01T10:47:50;6.60;99.90
22450;DHT22;11392;57.390;-2.468;2023-04-01T10:56:38;6.50;99.90
22450;DHT22;11392;57.390;-2.468;2023-04-01T10:59:23;6.40;99.90
22450;DHT22;11392;57.390;-2.468;2023-04-01T11:38:22;6.80;99.90
22450;DHT22;11392;57.390;-2.468;2023-04-01T11:51:53;6.50;99.90
22450;DHT22;11392;57.390;-2.468;2023-04-01T12:11:41;6.60;99.90
22450;DHT22;11392;57.390;-2.468;2023-04-01T12:27:49;7.20;99.90
22450;DHT22;11392;57.390;-2.468;2023-04-01T12:36:23;7.30;99.90
22450;DHT22;11392;57.390;-2.468;2023-04-01T12:42:31;7.00;99.90
22450;DHT22;11392;57.390;-2.468;2023-04-01T12:54:02;7.10;99.90
22450;DHT22;11392;57.390;-2.468;2023-04-01T12:59:31;6.90;99.90
22450;DHT22;11392;57.390;-2.468;2023-04-01T13:02:13;6.90;99.90
22450;DHT22;11392;57.390;-2.468;2023-04-01T13:34:17;6.20;99.90
22450;DHT22;11392;57.390;-2.468;2023-04-01T13:42:40;6.20;99.90
22450;DHT22;11392;57.390;-2.468;2023-04-01T13:45:16;6.40;99.90
22450;DHT22;11392;57.390;-2.468;2023-04-01T13:56:41;6.80;99.90
22450;DHT22;11392;57.390;-2.468;2023-04-01T13:59:36;6.80;99.90
22450;DHT22;11392;57.390;-2.468;2023-04-01T14:13:00;6.60;99.90
22450;DHT22;11392;57.390;-2.468;2023-04-01T14:50:17;6.20;99.90
22450;DHT22;11392;57.390;-2.468;2023-04-01T14:58:11;6.40;99.90
22450;DHT22;11392;57.390;-2.468;2023-04-01T15:00:50;6.40;99.90
22450;DHT22;11392;57.390;-2.468;2023-04-01T15:03:30;6.50;99.90
22450;DHT22;11392;57.390;-2.468;2023-04-01T15:06:34;6.70;99.90
22450;DHT22;11392;57.390;-2.468;2023-04-01T15:17:37;6.90;99.90
22450;DHT22;11392;57.390;-2.468;2023-04-01T15:26:13;6.90;99.90
22450;DHT22;11392;57.390;-2.468;2023-04-01T15:29:33;6.90;99.90
22450;DHT22;11392;57.390;-2.468;2023-04-01T15:32:16;7.00;99.90
22450;DHT22;11392;57.390;-2.468;2023-04-01T15:37:52;6.90;99.90
22450;DHT22;11392;57.390;-2.468;2023-04-01T15:51:28;6.70;99.90
22450;DHT22;11392;57.390;-2.468;2023-04-01T16:04:59;6.60;99.90
22450;DHT22;11392;57.390;-2.468;2023-04-01T16:13:14;6.60;99.90
22450;DHT22;11392;57.390;-2.468;2023-04-01T16:21:51;6.60;99.90
22450;DHT22;11392;57.390;-2.468;2023-04-01T16:28:04;6.60;99.90
22450;DHT22;11392;57.390;-2.468;2023-04-01T16:30:38;6.50;99.90
22450;DHT22;11392;57.390;-2.468;2023-04-01T16:33:40;6.50;99.90
22450;DHT22;11392;57.390;-2.468;2023-04-01T16:38:40;6.50;99.90
22450;DHT22;11392;57.390;-2.468;2023-04-01T16:41:31;6.40;99.90
22450;DHT22;11392;57.390;-2.468;2023-04-01T16:46:42;6.40;99.90
22450;DHT22;11392;57.390;-2.468;2023-04-01T16:54:43;6.40;99.90
22450;DHT22;11392;57.390;-2.468;2023-04-01T17:02:49;6.30;99.90
22450;DHT22;11392;57.390;-2.468;2023-04-01T17:05:20;6.30;99.90
22450;DHT22;11392;57.390;-2.468;2023-04-01T17:16:25;6.30;99.90
22450;DHT22;11392;57.390;-2.468;2023-04-01T17:27:44;6.30;99.90
22450;DHT22;11392;57.390;-2.468;2023-04-01T17:32:55;6.20;99.90
22450;DHT22;11392;57.390;-2.468;2023-04-01T17:43:28;6.20;99.90
22450;DHT22;11392;57.390;-2.468;2023-04-01T17:46:05;6.20;99.90
22450;DHT22;11392;57.390;-2.468;2023-04-01T17:51:43;6.10;99.90
22450;DHT22;11392;57.390;-2.468;2023-04-01T18:02:57;6.00;99.90
22450;DHT22;11392;57.390;-2.468;2023-04-01T18:11:12;6.00;99.90
22450;DHT22;11392;57.390;-2.468;2023-04-01T18:13:45;6.00;99.90
22450;DHT22;11392;57.390;-2.468;2023-04-01T18:19:09;5.90;99.90
22450;DHT22;11392;57.390;-2.468;2023-04-01T18:22:10;5.90;99.90
22450;DHT22;11392;57.390;-2.468;2023-04-01T18:24:59;5.90;99.90
22450;DHT22;11392;57.390;-2.468;2023-04-01T18:27:50;5.80;99.90
22450;DHT22;11392;57.390;-2.468;2023-04-01T18:30:32;5.80;99.90
22450;DHT22;11392;57.390;-2.468;2023-04-01T18:35:45;5.80;99.90
22450;DHT22;11392;57.390;-2.468;2023-04-01T18:38:33;5.80;99.90
22450;DHT22;11392;57.390;-2.468;2023-04-01T18:46:38;5.80;99.90
22450;DHT22;11392;57.390;-2.468;2023-04-01T18:49:27;5.80;99.90
22450;DHT22;11392;57.390;-2.468;2023-04-01T18:52:09;5.80;99.90
22450;DHT22;11392;57.390;-2.468;2023-04-01T18:54:49;5.80;99.90
22450;DHT22;11392;57.390;-2.468;2023-04-01T18:57:20;5.80;99.90
22450;DHT22;11392;57.390;-2.468;2023-04-01T18:59:55;5.80;99.90
22450;DHT22;11392;57.390;-2.468;2023-04-01T19:02:48;5.90;99.90
22450;DHT22;11392;57.390;-2.468;2023-04-01T19:08:27;5.80;99.90
22450;DHT22;11392;57.390;-2.468;2023-04-01T19:11:09;5.90;99.90
22450;DHT22;11392;57.390;-2.468;2023-04-01T19:28:16;5.90;99.90
22450;DHT22;11392;57.390;-2.468;2023-04-01T19:30:50;5.90;99.90
22450;DHT22;11392;57.390;-2.468;2023-04-01T19:47:02;5.80;99.90
22450;DHT22;11392;57.390;-2.468;2023-04-01T19:52:33;5.80;99.90
22450;DHT22;11392;57.390;-2.468;2023-04-01T19:55:47;5.80;99.90
22450;DHT22;11392;57.390;-2.468;2023-04-01T20:01:00;5.80;99.90
22450;DHT22;11392;57.390;-2.468;2023-04-01T20:03:39;5.70;99.90
22450;DHT22;11392;57.390;-2.468;2023-04-01T20:14:40;5.60;99.90
22450;DHT22;11392;57.390;-2.468;2023-04-01T20:17:20;5.60;99.90
22450;DHT22;11392;57.390;-2.468;2023-04-01T20:19:53;5.60;99.90
22450;DHT22;11392;57.390;-2.468;2023-04-01T20:27:45;5.50;99.90
22450;DHT22;11392;57.390;-2.468;2023-04-01T20:48:02;5.20;99.90
22450;DHT22;11392;57.390;-2.468;2023-04-01T20:50:28;5.20;99.90
22450;DHT22;11392;57.390;-2.468;2023-04-01T21:07:28;5.10;99.90
22450;DHT22;11392;57.390;-2.468;2023-04-01T21:21:49;5.10;99.90
22450;DHT22;11392;57.390;-2.468;2023-04-01T21:27:20;5.00;99.90
22450;DHT22;11392;57.390;-2.468;2023-04-01T21:38:32;5.00;99.90
22450;DHT22;11392;57.390;-2.468;2023-04-01T21:44:07;4.90;99.90
22450;DHT22;11392;57.390;-2.468;2023-04-01T22:07:17;4.60;99.90
22450;DHT22;11392;57.390;-2.468;2023-04-01T22:10:00;4.60;99.90
22450;DHT22;11392;57.390;-2.468;2023-04-01T22:12:41;4.50;99.90
22450;DHT22;11392;57.390;-2.468;2023-04-01T22:15:42;4.50;99.90
22450;DHT22;11392;57.390;-2.468;2023-04-01T22:18:31;4.50;99.90
22450;DHT22;11392;57.390;-2.468;2023-04-01T22:24:00;4.50;99.90
22450;DHT22;11392;57.390;-2.468;2023-04-01T22:36:38;4.30;99.90
22450;DHT22;11392;57.390;-2.468;2023-04-01T22:39:21;4.40;99.90
22450;DHT22;11392;57.390;-2.468;2023-04-01T22:42:37;4.40;99.90
22450;DHT22;11392;57.390;-2.468;2023-04-01T22:45:28;4.40;99.90
22450;DHT22;11392;57.390;-2.468;2023-04-01T22:48:08;4.40;99.90
22450;DHT22;11392;57.390;-2.468;2023-04-01T22:51:01;4.40;99.90
22450;DHT22;11392;57.390;-2.468;2023-04-01T22:53:33;4.40;99.90
22450;DHT22;11392;57.390;-2.468;2023-04-01T22:56:07;4.40;99.90
22450;DHT22;11392;57.390;-2.468;2023-04-01T22:58:42;4.30;99.90
22450;DHT22;11392;57.390;-2.468;2023-04-01T23:01:20;4.30;99.90
22450;DHT22;11392;57.390;-2.468;2023-04-01T23:03:50;4.30;99.90
22450;DHT22;11392;57.390;-2.468;2023-04-01T23:06:26;4.30;99.90
22450;DHT22;11392;57.390;-2.468;2023-04-01T23:24:53;4.30;99.90
22450;DHT22;11392;57.390;-2.468;2023-04-01T23:27:33;4.20;99.90
22450;DHT22;11392;57.390;-2.468;2023-04-01T23:30:02;4.20;99.90
22450;DHT22;11392;57.390;-2.468;2023-04-01T23:32:30;4.20;99.90
22450;DHT22;11392;57.390;-2.468;2023-04-01T23:34:58;4.10;99.90
22450;DHT22;11392;57.390;-2.468;2023-04-01T23:37:26;4.10;99.90
22450;DHT22;11392;57.390;-2.468;2023-04-01T23:39:58;4.10;99.90
22450;DHT22;11392;57.390;-2.468;2023-04-01T23:42:31;4.00;99.90
22450;DHT22;11392;57.390;-2.468;2023-04-01T23:45:05;4.00;99.90
22450;DHT22;11392;57.390;-2.468;2023-04-01T23:47:36;4.00;99.90
22450;DHT22;11392;57.390;-2.468;2023-04-01T23:50:11;4.00;99.90
22450;DHT22;11392;57.390;-2.468;2023-04-01T23:52:53;3.90;99.90
22450;DHT22;11392;57.390;-2.468;2023-04-01T23:55:28;3.90;99.90
